sensor_id;sensor_type;location;lat;lon;timestamp;P1;durP1;ratioP1;P2;durP2;ratioP2
11151;SDS011;5630;49.342;10.802;2023-06-10T00:01:39;6.33;;;5.83;;
11151;SDS011;5630;49.342;10.802;2023-06-10T00:04:04;6.43;;;5.83;;
11151;SDS011;5630;49.342;10.802;2023-06-10T00:06:30;7.17;;;6.00;;
11151;SDS011;5630;49.342;10.802;2023-06-10T00:09:01;7.07;;;6.20;;
11151;SDS011;5630;49.342;10.802;2023-06-10T00:11:29;6.30;;;5.70;;
11151;SDS011;5630;49.342;10.802;2023-06-10T00:13:55;6.60;;;5.90;;
11151;SDS011;5630;49.342;10.802;2023-06-10T00:16:21;7.60;;;6.30;;
11151;SDS011;5630;49.342;10.802;2023-06-10T00:18:46;5.80;;;5.30;;
11151;SDS011;5630;49.342;10.802;2023-06-10T00:21:13;5.67;;;5.17;;
11151;SDS011;5630;49.342;10.802;2023-06-10T00:23:39;6.07;;;5.20;;
11151;SDS011;5630;49.342;10.802;2023-06-10T00:26:06;6.23;;;5.63;;
11151;SDS011;5630;49.342;10.802;2023-06-10T00:28:32;6.27;;;5.77;;
11151;SDS011;5630;49.342;10.802;2023-06-10T00:30:57;5.87;;;5.30;;
11151;SDS011;5630;49.342;10.802;2023-06-10T00:33:23;5.73;;;5.17;;
11151;SDS011;5630;49.342;10.802;2023-06-10T00:35:48;6.00;;;5.17;;
11151;SDS011;5630;49.342;10.802;2023-06-10T00:38:14;5.80;;;5.30;;
11151;SDS011;5630;49.342;10.802;2023-06-10T00:40:40;5.70;;;5.20;;
11151;SDS011;5630;49.342;10.802;2023-06-10T00:43:06;5.57;;;5.07;;
11151;SDS011;5630;49.342;10.802;2023-06-10T00:45:32;6.20;;;5.60;;
11151;SDS011;5630;49.342;10.802;2023-06-10T00:47:58;6.97;;;6.13;;
11151;SDS011;5630;49.342;10.802;2023-06-10T00:50:27;6.13;;;5.50;;
11151;SDS011;5630;49.342;10.802;2023-06-10T00:52:56;6.03;;;5.50;;
11151;SDS011;5630;49.342;10.802;2023-06-10T00:55:22;6.07;;;5.57;;
11151;SDS011;5630;49.342;10.802;2023-06-10T00:57:48;7.70;;;5.93;;
11151;SDS011;5630;49.342;10.802;2023-06-10T01:00:16;5.83;;;5.33;;
11151;SDS011;5630;49.342;10.802;2023-06-10T01:02:42;5.73;;;5.17;;
11151;SDS011;5630;49.342;10.802;2023-06-10T01:05:07;7.67;;;5.50;;
11151;SDS011;5630;49.342;10.802;2023-06-10T01:07:38;6.30;;;5.70;;
11151;SDS011;5630;49.342;10.802;2023-06-10T01:12:45;6.60;;;6.00;;
11151;SDS011;5630;49.342;10.802;2023-06-10T01:15:17;9.70;;;6.53;;
11151;SDS011;5630;49.342;10.802;2023-06-10T01:17:54;6.30;;;5.80;;
11151;SDS011;5630;49.342;10.802;2023-06-10T01:20:20;6.37;;;5.77;;
11151;SDS011;5630;49.342;10.802;2023-06-10T01:22:46;6.63;;;6.00;;
11151;SDS011;5630;49.342;10.802;2023-06-10T01:25:12;7.97;;;6.23;;
11151;SDS011;5630;49.342;10.802;2023-06-10T01:27:38;6.40;;;5.90;;
11151;SDS011;5630;49.342;10.802;2023-06-10T01:30:08;7.27;;;6.53;;
11151;SDS011;5630;49.342;10.802;2023-06-10T01:32:42;7.23;;;6.53;;
11151;SDS011;5630;49.342;10.802;2023-06-10T01:35:10;7.07;;;6.13;;
11151;SDS011;5630;49.342;10.802;2023-06-10T01:37:38;7.30;;;6.17;;
11151;SDS011;5630;49.342;10.802;2023-06-10T01:40:05;6.60;;;6.00;;
11151;SDS011;5630;49.342;10.802;2023-06-10T01:42:31;7.70;;;6.30;;
11151;SDS011;5630;49.342;10.802;2023-06-10T01:44:57;6.50;;;5.90;;
11151;SDS011;5630;49.342;10.802;2023-06-10T01:47:23;7.80;;;6.90;;
11151;SDS011;5630;49.342;10.802;2023-06-10T01:49:49;9.10;;;6.67;;
11151;SDS011;5630;49.342;10.802;2023-06-10T01:52:14;7.63;;;6.50;;
11151;SDS011;5630;49.342;10.802;2023-06-10T01:54:40;7.30;;;6.60;;
11151;SDS011;5630;49.342;10.802;2023-06-10T01:57:06;7.67;;;6.87;;
11151;SDS011;5630;49.342;10.802;2023-06-10T01:59:31;7.03;;;6.33;;
11151;SDS011;5630;49.342;10.802;2023-06-10T02:01:57;6.97;;;6.30;;
11151;SDS011;5630;49.342;10.802;2023-06-10T02:04:22;7.30;;;6.60;;
11151;SDS011;5630;49.342;10.802;2023-06-10T02:06:48;7.90;;;7.10;;
11151;SDS011;5630;49.342;10.802;2023-06-10T02:09:14;7.97;;;7.27;;
11151;SDS011;5630;49.342;10.802;2023-06-10T02:11:39;7.60;;;6.90;;
11151;SDS011;5630;49.342;10.802;2023-06-10T02:14:05;7.20;;;6.47;;
11151;SDS011;5630;49.342;10.802;2023-06-10T02:16:30;7.70;;;7.00;;
11151;SDS011;5630;49.342;10.802;2023-06-10T02:18:56;8.27;;;7.10;;
11151;SDS011;5630;49.342;10.802;2023-06-10T02:21:22;7.90;;;7.10;;
11151;SDS011;5630;49.342;10.802;2023-06-10T02:23:48;7.97;;;6.90;;
11151;SDS011;5630;49.342;10.802;2023-06-10T02:26:13;9.23;;;7.13;;
11151;SDS011;5630;49.342;10.802;2023-06-10T02:28:42;7.97;;;6.80;;
11151;SDS011;5630;49.342;10.802;2023-06-10T02:31:08;8.00;;;7.20;;
11151;SDS011;5630;49.342;10.802;2023-06-10T02:33:34;7.67;;;6.97;;
11151;SDS011;5630;49.342;10.802;2023-06-10T02:35:59;8.13;;;7.07;;
11151;SDS011;5630;49.342;10.802;2023-06-10T02:38:25;8.57;;;7.10;;
11151;SDS011;5630;49.342;10.802;2023-06-10T02:40:51;7.93;;;7.00;;
11151;SDS011;5630;49.342;10.802;2023-06-10T02:43:16;8.33;;;7.57;;
11151;SDS011;5630;49.342;10.802;2023-06-10T02:45:42;9.40;;;7.93;;
11151;SDS011;5630;49.342;10.802;2023-06-10T02:48:07;8.13;;;7.27;;
11151;SDS011;5630;49.342;10.802;2023-06-10T02:50:33;7.67;;;7.07;;
11151;SDS011;5630;49.342;10.802;2023-06-10T02:52:58;8.53;;;7.63;;
11151;SDS011;5630;49.342;10.802;2023-06-10T02:55:24;8.60;;;7.80;;
11151;SDS011;5630;49.342;10.802;2023-06-10T02:57:51;9.40;;;6.97;;
11151;SDS011;5630;49.342;10.802;2023-06-10T03:00:19;8.17;;;7.37;;
11151;SDS011;5630;49.342;10.802;2023-06-10T03:02:45;10.87;;;7.97;;
11151;SDS011;5630;49.342;10.802;2023-06-10T03:05:10;8.27;;;7.47;;
11151;SDS011;5630;49.342;10.802;2023-06-10T03:07:38;8.20;;;7.50;;
11151;SDS011;5630;49.342;10.802;2023-06-10T03:10:04;8.10;;;7.33;;
11151;SDS011;5630;49.342;10.802;2023-06-10T03:12:30;8.70;;;7.33;;
11151;SDS011;5630;49.342;10.802;2023-06-10T03:14:56;7.60;;;7.00;;
11151;SDS011;5630;49.342;10.802;2023-06-10T03:17:22;8.73;;;7.67;;
11151;SDS011;5630;49.342;10.802;2023-06-10T03:19:47;11.00;;;7.47;;
11151;SDS011;5630;49.342;10.802;2023-06-10T03:22:14;8.40;;;7.70;;
11151;SDS011;5630;49.342;10.802;2023-06-10T03:24:40;8.63;;;7.83;;
11151;SDS011;5630;49.342;10.802;2023-06-10T03:27:06;7.80;;;7.10;;
11151;SDS011;5630;49.342;10.802;2023-06-10T03:29:32;7.90;;;7.20;;
11151;SDS011;5630;49.342;10.802;2023-06-10T03:31:58;10.40;;;8.47;;
11151;SDS011;5630;49.342;10.802;2023-06-10T03:34:24;8.53;;;7.73;;
11151;SDS011;5630;49.342;10.802;2023-06-10T03:36:49;8.70;;;7.90;;
11151;SDS011;5630;49.342;10.802;2023-06-10T03:39:15;8.57;;;7.77;;
11151;SDS011;5630;49.342;10.802;2023-06-10T03:41:41;8.60;;;7.80;;
11151;SDS011;5630;49.342;10.802;2023-06-10T03:44:06;9.40;;;8.23;;
11151;SDS011;5630;49.342;10.802;2023-06-10T03:46:32;9.03;;;7.60;;
11151;SDS011;5630;49.342;10.802;2023-06-10T03:48:58;9.43;;;8.07;;
11151;SDS011;5630;49.342;10.802;2023-06-10T03:51:25;9.50;;;7.93;;
11151;SDS011;5630;49.342;10.802;2023-06-10T03:53:51;9.37;;;8.40;;
11151;SDS011;5630;49.342;10.802;2023-06-10T03:56:17;8.50;;;7.80;;
11151;SDS011;5630;49.342;10.802;2023-06-10T03:58:42;7.93;;;7.13;;
11151;SDS011;5630;49.342;10.802;2023-06-10T04:01:08;9.20;;;7.70;;
11151;SDS011;5630;49.342;10.802;2023-06-10T04:03:35;9.17;;;8.23;;
11151;SDS011;5630;49.342;10.802;2023-06-10T04:06:01;8.80;;;7.80;;
11151;SDS011;5630;49.342;10.802;2023-06-10T04:08:27;8.70;;;7.80;;
11151;SDS011;5630;49.342;10.802;2023-06-10T04:10:53;8.60;;;7.80;;
11151;SDS011;5630;49.342;10.802;2023-06-10T04:13:18;8.57;;;7.73;;
11151;SDS011;5630;49.342;10.802;2023-06-10T04:15:44;8.27;;;7.50;;
11151;SDS011;5630;49.342;10.802;2023-06-10T04:18:10;9.20;;;8.30;;
11151;SDS011;5630;49.342;10.802;2023-06-10T04:20:35;9.53;;;8.60;;
11151;SDS011;5630;49.342;10.802;2023-06-10T04:23:01;10.73;;;9.17;;
11151;SDS011;5630;49.342;10.802;2023-06-10T04:25:27;9.57;;;8.67;;
11151;SDS011;5630;49.342;10.802;2023-06-10T04:27:53;9.90;;;8.90;;
11151;SDS011;5630;49.342;10.802;2023-06-10T04:30:19;9.27;;;8.43;;
11151;SDS011;5630;49.342;10.802;2023-06-10T04:32:45;9.70;;;8.80;;
11151;SDS011;5630;49.342;10.802;2023-06-10T04:35:12;10.83;;;8.53;;
11151;SDS011;5630;49.342;10.802;2023-06-10T04:37:39;8.53;;;7.77;;
11151;SDS011;5630;49.342;10.802;2023-06-10T04:40:05;9.57;;;8.67;;
11151;SDS011;5630;49.342;10.802;2023-06-10T04:42:31;5.97;;;5.37;;
11151;SDS011;5630;49.342;10.802;2023-06-10T04:44:57;5.87;;;5.37;;
11151;SDS011;5630;49.342;10.802;2023-06-10T04:47:22;5.43;;;4.83;;
11151;SDS011;5630;49.342;10.802;2023-06-10T04:49:48;5.50;;;5.00;;
11151;SDS011;5630;49.342;10.802;2023-06-10T04:52:13;5.87;;;5.37;;
11151;SDS011;5630;49.342;10.802;2023-06-10T04:54:39;6.00;;;5.40;;
11151;SDS011;5630;49.342;10.802;2023-06-10T04:57:06;6.70;;;6.00;;
11151;SDS011;5630;49.342;10.802;2023-06-10T04:59:32;5.93;;;5.43;;
11151;SDS011;5630;49.342;10.802;2023-06-10T05:01:58;6.83;;;6.23;;
11151;SDS011;5630;49.342;10.802;2023-06-10T05:04:24;6.50;;;5.80;;
11151;SDS011;5630;49.342;10.802;2023-06-10T05:06:49;6.73;;;5.80;;
11151;SDS011;5630;49.342;10.802;2023-06-10T05:09:15;8.07;;;7.27;;
11151;SDS011;5630;49.342;10.802;2023-06-10T05:11:40;9.57;;;8.57;;
11151;SDS011;5630;49.342;10.802;2023-06-10T05:14:06;9.20;;;8.13;;
11151;SDS011;5630;49.342;10.802;2023-06-10T05:16:32;8.93;;;8.03;;
11151;SDS011;5630;49.342;10.802;2023-06-10T05:18:57;8.50;;;7.70;;
11151;SDS011;5630;49.342;10.802;2023-06-10T05:21:23;7.90;;;7.20;;
11151;SDS011;5630;49.342;10.802;2023-06-10T05:23:48;8.73;;;7.93;;
11151;SDS011;5630;49.342;10.802;2023-06-10T05:26:14;8.23;;;7.43;;
11151;SDS011;5630;49.342;10.802;2023-06-10T05:28:40;9.13;;;8.23;;
11151;SDS011;5630;49.342;10.802;2023-06-10T05:31:06;9.80;;;8.90;;
11151;SDS011;5630;49.342;10.802;2023-06-10T05:33:32;10.23;;;9.23;;
11151;SDS011;5630;49.342;10.802;2023-06-10T05:35:57;9.67;;;8.57;;
11151;SDS011;5630;49.342;10.802;2023-06-10T05:38:23;10.73;;;8.37;;
11151;SDS011;5630;49.342;10.802;2023-06-10T05:40:48;10.73;;;8.93;;
11151;SDS011;5630;49.342;10.802;2023-06-10T05:43:14;9.37;;;8.47;;
11151;SDS011;5630;49.342;10.802;2023-06-10T05:45:41;10.17;;;8.07;;
11151;SDS011;5630;49.342;10.802;2023-06-10T05:48:07;9.07;;;8.27;;
11151;SDS011;5630;49.342;10.802;2023-06-10T05:50:33;9.07;;;8.17;;
11151;SDS011;5630;49.342;10.802;2023-06-10T05:53:03;8.70;;;7.80;;
11151;SDS011;5630;49.342;10.802;2023-06-10T05:55:31;7.87;;;7.17;;
11151;SDS011;5630;49.342;10.802;2023-06-10T05:58:00;8.80;;;8.00;;
11151;SDS011;5630;49.342;10.802;2023-06-10T06:00:26;8.73;;;7.83;;
11151;SDS011;5630;49.342;10.802;2023-06-10T06:02:52;8.27;;;7.30;;
11151;SDS011;5630;49.342;10.802;2023-06-10T06:05:19;9.10;;;8.03;;
11151;SDS011;5630;49.342;10.802;2023-06-10T06:07:44;6.87;;;6.20;;
11151;SDS011;5630;49.342;10.802;2023-06-10T06:10:10;6.83;;;6.23;;
11151;SDS011;5630;49.342;10.802;2023-06-10T06:12:36;7.00;;;6.40;;
11151;SDS011;5630;49.342;10.802;2023-06-10T06:15:01;7.37;;;6.77;;
11151;SDS011;5630;49.342;10.802;2023-06-10T06:17:27;10.30;;;7.50;;
11151;SDS011;5630;49.342;10.802;2023-06-10T06:19:52;8.20;;;7.40;;
11151;SDS011;5630;49.342;10.802;2023-06-10T06:22:18;11.13;;;9.20;;
11151;SDS011;5630;49.342;10.802;2023-06-10T06:24:46;12.83;;;9.23;;
11151;SDS011;5630;49.342;10.802;2023-06-10T06:27:12;9.77;;;8.87;;
11151;SDS011;5630;49.342;10.802;2023-06-10T06:29:37;8.80;;;8.00;;
11151;SDS011;5630;49.342;10.802;2023-06-10T06:32:03;9.00;;;8.13;;
11151;SDS011;5630;49.342;10.802;2023-06-10T06:34:29;12.83;;;9.17;;
11151;SDS011;5630;49.342;10.802;2023-06-10T06:36:54;10.60;;;8.87;;
11151;SDS011;5630;49.342;10.802;2023-06-10T06:39:20;7.93;;;7.23;;
11151;SDS011;5630;49.342;10.802;2023-06-10T06:41:45;8.33;;;7.53;;
11151;SDS011;5630;49.342;10.802;2023-06-10T06:44:11;11.00;;;8.20;;
11151;SDS011;5630;49.342;10.802;2023-06-10T06:46:36;9.63;;;7.40;;
11151;SDS011;5630;49.342;10.802;2023-06-10T06:49:02;7.00;;;6.30;;
11151;SDS011;5630;49.342;10.802;2023-06-10T06:51:27;7.10;;;6.50;;
11151;SDS011;5630;49.342;10.802;2023-06-10T06:53:53;7.13;;;6.37;;
11151;SDS011;5630;49.342;10.802;2023-06-10T06:56:21;7.33;;;6.63;;
11151;SDS011;5630;49.342;10.802;2023-06-10T06:58:47;7.40;;;6.20;;
11151;SDS011;5630;49.342;10.802;2023-06-10T07:01:13;6.43;;;5.93;;
11151;SDS011;5630;49.342;10.802;2023-06-10T07:03:38;6.87;;;6.27;;
11151;SDS011;5630;49.342;10.802;2023-06-10T07:06:04;9.90;;;6.17;;
11151;SDS011;5630;49.342;10.802;2023-06-10T07:08:30;6.77;;;6.10;;
11151;SDS011;5630;49.342;10.802;2023-06-10T07:10:55;6.37;;;5.77;;
11151;SDS011;5630;49.342;10.802;2023-06-10T07:13:21;6.10;;;5.50;;
11151;SDS011;5630;49.342;10.802;2023-06-10T07:15:46;7.03;;;6.33;;
11151;SDS011;5630;49.342;10.802;2023-06-10T07:18:12;6.43;;;5.73;;
11151;SDS011;5630;49.342;10.802;2023-06-10T07:20:39;5.87;;;5.37;;
11151;SDS011;5630;49.342;10.802;2023-06-10T07:23:06;7.40;;;6.20;;
11151;SDS011;5630;49.342;10.802;2023-06-10T07:25:32;6.23;;;5.73;;
11151;SDS011;5630;49.342;10.802;2023-06-10T07:27:57;6.73;;;6.13;;
11151;SDS011;5630;49.342;10.802;2023-06-10T07:30:23;6.17;;;5.57;;
11151;SDS011;5630;49.342;10.802;2023-06-10T07:32:48;7.13;;;6.27;;
11151;SDS011;5630;49.342;10.802;2023-06-10T07:35:14;7.37;;;6.07;;
11151;SDS011;5630;49.342;10.802;2023-06-10T07:37:39;6.47;;;5.87;;
11151;SDS011;5630;49.342;10.802;2023-06-10T07:40:05;6.97;;;6.37;;
11151;SDS011;5630;49.342;10.802;2023-06-10T07:42:32;6.50;;;5.90;;
11151;SDS011;5630;49.342;10.802;2023-06-10T07:44:59;6.63;;;5.73;;
11151;SDS011;5630;49.342;10.802;2023-06-10T07:47:25;6.53;;;6.03;;
11151;SDS011;5630;49.342;10.802;2023-06-10T07:49:51;6.50;;;5.90;;
11151;SDS011;5630;49.342;10.802;2023-06-10T07:52:16;6.93;;;6.27;;
11151;SDS011;5630;49.342;10.802;2023-06-10T07:54:42;6.57;;;5.90;;
11151;SDS011;5630;49.342;10.802;2023-06-10T07:57:07;6.10;;;5.50;;
11151;SDS011;5630;49.342;10.802;2023-06-10T07:59:33;6.70;;;6.10;;
11151;SDS011;5630;49.342;10.802;2023-06-10T08:01:59;8.27;;;6.47;;
11151;SDS011;5630;49.342;10.802;2023-06-10T08:04:24;7.50;;;6.50;;
11151;SDS011;5630;49.342;10.802;2023-06-10T08:06:50;6.67;;;6.07;;
11151;SDS011;5630;49.342;10.802;2023-06-10T08:09:16;6.43;;;5.83;;
11151;SDS011;5630;49.342;10.802;2023-06-10T08:11:43;8.00;;;6.73;;
11151;SDS011;5630;49.342;10.802;2023-06-10T08:14:09;6.93;;;6.23;;
11151;SDS011;5630;49.342;10.802;2023-06-10T08:16:34;8.43;;;6.33;;
11151;SDS011;5630;49.342;10.802;2023-06-10T08:19:00;7.37;;;6.67;;
11151;SDS011;5630;49.342;10.802;2023-06-10T08:21:25;8.23;;;6.43;;
11151;SDS011;5630;49.342;10.802;2023-06-10T08:23:53;6.57;;;5.97;;
11151;SDS011;5630;49.342;10.802;2023-06-10T08:26:19;6.47;;;5.87;;
11151;SDS011;5630;49.342;10.802;2023-06-10T08:28:45;7.70;;;6.40;;
11151;SDS011;5630;49.342;10.802;2023-06-10T08:31:11;7.13;;;6.43;;
11151;SDS011;5630;49.342;10.802;2023-06-10T08:33:36;6.87;;;6.27;;
11151;SDS011;5630;49.342;10.802;2023-06-10T08:36:02;6.50;;;5.90;;
11151;SDS011;5630;49.342;10.802;2023-06-10T08:38:27;7.20;;;5.40;;
11151;SDS011;5630;49.342;10.802;2023-06-10T08:40:55;6.37;;;5.77;;
11151;SDS011;5630;49.342;10.802;2023-06-10T08:43:42;6.80;;;6.10;;
11151;SDS011;5630;49.342;10.802;2023-06-10T08:46:10;7.23;;;6.00;;
11151;SDS011;5630;49.342;10.802;2023-06-10T08:48:41;5.90;;;5.30;;
11151;SDS011;5630;49.342;10.802;2023-06-10T08:51:09;5.03;;;4.63;;
11151;SDS011;5630;49.342;10.802;2023-06-10T08:53:36;4.87;;;4.47;;
11151;SDS011;5630;49.342;10.802;2023-06-10T08:56:07;4.83;;;4.43;;
11151;SDS011;5630;49.342;10.802;2023-06-10T08:58:35;6.53;;;4.63;;
11151;SDS011;5630;49.342;10.802;2023-06-10T09:01:06;5.50;;;5.00;;
11151;SDS011;5630;49.342;10.802;2023-06-10T09:03:33;5.27;;;4.20;;
11151;SDS011;5630;49.342;10.802;2023-06-10T09:06:03;4.57;;;4.18;;
11151;SDS011;5630;49.342;10.802;2023-06-10T09:08:30;4.03;;;3.73;;
11151;SDS011;5630;49.342;10.802;2023-06-10T09:10:56;4.57;;;3.83;;
11151;SDS011;5630;49.342;10.802;2023-06-10T09:13:22;4.30;;;4.00;;
11151;SDS011;5630;49.342;10.802;2023-06-10T09:15:48;5.03;;;3.90;;
11151;SDS011;5630;49.342;10.802;2023-06-10T09:18:16;3.83;;;3.53;;
11151;SDS011;5630;49.342;10.802;2023-06-10T09:20:42;4.77;;;4.27;;
11151;SDS011;5630;49.342;10.802;2023-06-10T09:23:08;8.43;;;4.53;;
11151;SDS011;5630;49.342;10.802;2023-06-10T09:25:35;4.57;;;4.00;;
11151;SDS011;5630;49.342;10.802;2023-06-10T09:28:03;4.77;;;4.00;;
11151;SDS011;5630;49.342;10.802;2023-06-10T09:30:29;4.50;;;3.77;;
11151;SDS011;5630;49.342;10.802;2023-06-10T09:32:57;5.47;;;4.50;;
11151;SDS011;5630;49.342;10.802;2023-06-10T09:35:24;4.80;;;3.80;;
11151;SDS011;5630;49.342;10.802;2023-06-10T09:37:54;10.07;;;4.30;;
11151;SDS011;5630;49.342;10.802;2023-06-10T09:40:21;4.30;;;3.73;;
11151;SDS011;5630;49.342;10.802;2023-06-10T09:42:46;5.37;;;3.87;;
11151;SDS011;5630;49.342;10.802;2023-06-10T09:45:19;6.27;;;4.00;;
11151;SDS011;5630;49.342;10.802;2023-06-10T09:47:46;4.43;;;3.47;;
11151;SDS011;5630;49.342;10.802;2023-06-10T09:50:12;4.03;;;3.63;;
11151;SDS011;5630;49.342;10.802;2023-06-10T09:52:38;7.30;;;3.70;;
11151;SDS011;5630;49.342;10.802;2023-06-10T09:55:04;3.87;;;3.50;;
11151;SDS011;5630;49.342;10.802;2023-06-10T09:57:32;4.00;;;3.60;;
11151;SDS011;5630;49.342;10.802;2023-06-10T09:59:58;3.77;;;3.33;;
11151;SDS011;5630;49.342;10.802;2023-06-10T10:02:24;5.50;;;3.53;;
11151;SDS011;5630;49.342;10.802;2023-06-10T10:04:50;4.67;;;3.53;;
11151;SDS011;5630;49.342;10.802;2023-06-10T10:07:15;3.60;;;3.30;;
11151;SDS011;5630;49.342;10.802;2023-06-10T10:09:42;4.13;;;3.63;;
11151;SDS011;5630;49.342;10.802;2023-06-10T10:14:33;5.00;;;3.30;;
11151;SDS011;5630;49.342;10.802;2023-06-10T10:17:00;3.47;;;3.17;;
11151;SDS011;5630;49.342;10.802;2023-06-10T10:19:31;3.90;;;3.60;;
11151;SDS011;5630;49.342;10.802;2023-06-10T10:22:04;4.37;;;3.70;;
11151;SDS011;5630;49.342;10.802;2023-06-10T10:24:35;4.83;;;3.80;;
11151;SDS011;5630;49.342;10.802;2023-06-10T10:27:05;4.30;;;3.90;;
11151;SDS011;5630;49.342;10.802;2023-06-10T10:29:39;4.57;;;4.17;;
11151;SDS011;5630;49.342;10.802;2023-06-10T10:32:06;4.30;;;3.80;;
11151;SDS011;5630;49.342;10.802;2023-06-10T10:37:08;6.90;;;3.97;;
11151;SDS011;5630;49.342;10.802;2023-06-10T10:39:34;4.43;;;4.03;;
11151;SDS011;5630;49.342;10.802;2023-06-10T10:42:01;4.93;;;3.93;;
11151;SDS011;5630;49.342;10.802;2023-06-10T10:44:28;7.53;;;4.20;;
11151;SDS011;5630;49.342;10.802;2023-06-10T10:46:55;7.13;;;3.90;;
11151;SDS011;5630;49.342;10.802;2023-06-10T10:49:22;6.53;;;4.03;;
11151;SDS011;5630;49.342;10.802;2023-06-10T10:51:56;4.13;;;3.83;;
11151;SDS011;5630;49.342;10.802;2023-06-10T10:54:29;4.37;;;3.97;;
11151;SDS011;5630;49.342;10.802;2023-06-10T10:59:44;4.70;;;4.17;;
11151;SDS011;5630;49.342;10.802;2023-06-10T11:02:10;5.07;;;3.97;;
11151;SDS011;5630;49.342;10.802;2023-06-10T11:04:44;5.77;;;3.80;;
11151;SDS011;5630;49.342;10.802;2023-06-10T11:07:13;4.63;;;4.00;;
11151;SDS011;5630;49.342;10.802;2023-06-10T11:10:06;4.03;;;3.73;;
11151;SDS011;5630;49.342;10.802;2023-06-10T11:15:10;4.50;;;4.07;;
11151;SDS011;5630;49.342;10.802;2023-06-10T11:17:36;4.50;;;4.10;;
11151;SDS011;5630;49.342;10.802;2023-06-10T11:20:02;5.57;;;3.93;;
11151;SDS011;5630;49.342;10.802;2023-06-10T11:22:28;4.83;;;4.33;;
11151;SDS011;5630;49.342;10.802;2023-06-10T11:24:54;4.60;;;4.20;;
11151;SDS011;5630;49.342;10.802;2023-06-10T11:27:22;5.37;;;4.33;;
11151;SDS011;5630;49.342;10.802;2023-06-10T11:29:55;4.80;;;4.37;;
11151;SDS011;5630;49.342;10.802;2023-06-10T11:32:21;4.20;;;3.90;;
11151;SDS011;5630;49.342;10.802;2023-06-10T11:34:52;5.37;;;4.27;;
11151;SDS011;5630;49.342;10.802;2023-06-10T11:37:18;5.40;;;4.60;;
11151;SDS011;5630;49.342;10.802;2023-06-10T11:39:44;5.40;;;5.00;;
11151;SDS011;5630;49.342;10.802;2023-06-10T11:42:10;5.23;;;4.73;;
11151;SDS011;5630;49.342;10.802;2023-06-10T11:44:36;5.07;;;4.63;;
11151;SDS011;5630;49.342;10.802;2023-06-10T11:47:02;11.33;;;4.90;;
11151;SDS011;5630;49.342;10.802;2023-06-10T11:49:28;5.23;;;4.70;;
11151;SDS011;5630;49.342;10.802;2023-06-10T11:51:54;5.00;;;4.50;;
11151;SDS011;5630;49.342;10.802;2023-06-10T11:54:20;5.00;;;4.60;;
11151;SDS011;5630;49.342;10.802;2023-06-10T11:56:47;5.60;;;4.60;;
11151;SDS011;5630;49.342;10.802;2023-06-10T11:59:13;5.50;;;5.00;;
11151;SDS011;5630;49.342;10.802;2023-06-10T12:01:43;5.23;;;4.80;;
11151;SDS011;5630;49.342;10.802;2023-06-10T12:04:10;4.47;;;4.07;;
11151;SDS011;5630;49.342;10.802;2023-06-10T12:06:44;4.53;;;4.20;;
11151;SDS011;5630;49.342;10.802;2023-06-10T12:09:17;5.00;;;4.50;;
11151;SDS011;5630;49.342;10.802;2023-06-10T12:12:03;4.40;;;4.10;;
11151;SDS011;5630;49.342;10.802;2023-06-10T12:17:15;4.47;;;4.07;;
11151;SDS011;5630;49.342;10.802;2023-06-10T12:19:41;4.50;;;4.10;;
11151;SDS011;5630;49.342;10.802;2023-06-10T12:22:06;4.07;;;3.77;;
11151;SDS011;5630;49.342;10.802;2023-06-10T12:24:32;4.47;;;4.07;;
11151;SDS011;5630;49.342;10.802;2023-06-10T12:26:57;4.80;;;4.40;;
11151;SDS011;5630;49.342;10.802;2023-06-10T12:29:24;4.57;;;4.17;;
11151;SDS011;5630;49.342;10.802;2023-06-10T12:31:57;4.80;;;4.40;;
11151;SDS011;5630;49.342;10.802;2023-06-10T12:34:30;4.30;;;4.00;;
11151;SDS011;5630;49.342;10.802;2023-06-10T12:36:56;4.83;;;4.43;;
11151;SDS011;5630;49.342;10.802;2023-06-10T12:39:21;6.80;;;4.43;;
11151;SDS011;5630;49.342;10.802;2023-06-10T12:41:50;4.77;;;4.37;;
11151;SDS011;5630;49.342;10.802;2023-06-10T12:44:16;5.00;;;4.60;;
11151;SDS011;5630;49.342;10.802;2023-06-10T12:46:42;5.47;;;4.53;;
11151;SDS011;5630;49.342;10.802;2023-06-10T12:49:08;4.37;;;4.07;;
11151;SDS011;5630;49.342;10.802;2023-06-10T12:51:43;4.93;;;4.43;;
11151;SDS011;5630;49.342;10.802;2023-06-10T12:54:09;5.13;;;4.73;;
11151;SDS011;5630;49.342;10.802;2023-06-10T12:56:35;5.50;;;4.53;;
11151;SDS011;5630;49.342;10.802;2023-06-10T12:59:01;4.77;;;4.37;;
11151;SDS011;5630;49.342;10.802;2023-06-10T13:01:27;4.00;;;3.70;;
11151;SDS011;5630;49.342;10.802;2023-06-10T13:03:53;4.20;;;3.80;;
11151;SDS011;5630;49.342;10.802;2023-06-10T13:06:18;4.63;;;3.83;;
11151;SDS011;5630;49.342;10.802;2023-06-10T13:08:45;4.77;;;3.77;;
11151;SDS011;5630;49.342;10.802;2023-06-10T13:11:12;4.23;;;3.83;;
11151;SDS011;5630;49.342;10.802;2023-06-10T13:13:37;4.27;;;3.87;;
11151;SDS011;5630;49.342;10.802;2023-06-10T13:16:03;4.10;;;3.70;;
11151;SDS011;5630;49.342;10.802;2023-06-10T13:18:29;3.87;;;3.53;;
11151;SDS011;5630;49.342;10.802;2023-06-10T13:20:54;3.43;;;3.13;;
11151;SDS011;5630;49.342;10.802;2023-06-10T13:23:21;3.43;;;3.13;;
11151;SDS011;5630;49.342;10.802;2023-06-10T13:25:47;3.93;;;3.63;;
11151;SDS011;5630;49.342;10.802;2023-06-10T13:28:12;3.97;;;3.57;;
11151;SDS011;5630;49.342;10.802;2023-06-10T13:30:38;3.50;;;3.20;;
11151;SDS011;5630;49.342;10.802;2023-06-10T13:33:03;3.97;;;3.67;;
11151;SDS011;5630;49.342;10.802;2023-06-10T13:35:29;3.97;;;3.67;;
11151;SDS011;5630;49.342;10.802;2023-06-10T13:37:54;4.63;;;3.90;;
11151;SDS011;5630;49.342;10.802;2023-06-10T13:40:20;4.23;;;3.83;;
11151;SDS011;5630;49.342;10.802;2023-06-10T13:42:47;4.40;;;4.00;;
11151;SDS011;5630;49.342;10.802;2023-06-10T13:45:15;3.90;;;3.60;;
11151;SDS011;5630;49.342;10.802;2023-06-10T13:47:42;4.00;;;3.70;;
11151;SDS011;5630;49.342;10.802;2023-06-10T13:50:07;3.97;;;3.50;;
11151;SDS011;5630;49.342;10.802;2023-06-10T13:52:33;4.27;;;3.97;;
11151;SDS011;5630;49.342;10.802;2023-06-10T13:54:59;4.67;;;3.70;;
11151;SDS011;5630;49.342;10.802;2023-06-10T13:57:24;3.97;;;3.67;;
11151;SDS011;5630;49.342;10.802;2023-06-10T13:59:50;4.40;;;4.07;;
11151;SDS011;5630;49.342;10.802;2023-06-10T14:02:16;3.97;;;3.67;;
11151;SDS011;5630;49.342;10.802;2023-06-10T14:04:41;3.87;;;3.57;;
11151;SDS011;5630;49.342;10.802;2023-06-10T14:07:07;6.00;;;4.10;;
11151;SDS011;5630;49.342;10.802;2023-06-10T14:09:32;4.20;;;3.90;;
11151;SDS011;5630;49.342;10.802;2023-06-10T14:11:58;3.90;;;3.50;;
11151;SDS011;5630;49.342;10.802;2023-06-10T14:14:23;4.97;;;3.87;;
11151;SDS011;5630;49.342;10.802;2023-06-10T14:16:49;5.00;;;3.67;;
11151;SDS011;5630;49.342;10.802;2023-06-10T14:19:14;4.10;;;3.80;;
11151;SDS011;5630;49.342;10.802;2023-06-10T14:21:40;4.23;;;3.93;;
11151;SDS011;5630;49.342;10.802;2023-06-10T14:24:06;4.07;;;3.77;;
11151;SDS011;5630;49.342;10.802;2023-06-10T14:26:31;4.47;;;3.80;;
11151;SDS011;5630;49.342;10.802;2023-06-10T14:28:57;4.50;;;4.10;;
11151;SDS011;5630;49.342;10.802;2023-06-10T14:31:23;4.03;;;3.73;;
11151;SDS011;5630;49.342;10.802;2023-06-10T14:33:49;4.97;;;4.20;;
11151;SDS011;5630;49.342;10.802;2023-06-10T14:36:14;4.10;;;3.80;;
11151;SDS011;5630;49.342;10.802;2023-06-10T14:38:40;4.23;;;3.90;;
11151;SDS011;5630;49.342;10.802;2023-06-10T14:41:05;4.20;;;3.90;;
11151;SDS011;5630;49.342;10.802;2023-06-10T14:43:31;4.50;;;4.10;;
11151;SDS011;5630;49.342;10.802;2023-06-10T14:45:56;4.27;;;3.97;;
11151;SDS011;5630;49.342;10.802;2023-06-10T14:48:22;5.73;;;4.43;;
11151;SDS011;5630;49.342;10.802;2023-06-10T14:50:48;4.87;;;4.37;;
11151;SDS011;5630;49.342;10.802;2023-06-10T14:53:18;5.23;;;4.10;;
11151;SDS011;5630;49.342;10.802;2023-06-10T14:55:44;4.00;;;3.70;;
11151;SDS011;5630;49.342;10.802;2023-06-10T14:58:09;4.87;;;4.17;;
11151;SDS011;5630;49.342;10.802;2023-06-10T15:00:35;4.43;;;4.03;;